createdAt,value
2022-10-22T00:05:02.138Z,7.44
2022-10-22T00:07:43.164Z,7.48
2022-10-22T00:13:34.150Z,7.48
2022-10-22T00:16:14.769Z,7.47
2022-10-22T00:19:06.110Z,7.46
2022-10-22T00:24:55.568Z,7.64
2022-10-22T00:27:40.631Z,7.69
2022-10-22T00:30:23.920Z,7.71
2022-10-22T00:33:22.385Z,7.80
2022-10-22T00:36:08.990Z,7.83
2022-10-22T00:45:26.453Z,8.31
2022-10-22T00:51:15.805Z,8.54
2022-10-22T00:54:22.531Z,8.47
2022-10-22T00:57:06.073Z,8.56
2022-10-22T01:00:02.646Z,8.16
2022-10-22T01:02:45.477Z,8.49
2022-10-22T01:05:31.975Z,8.32
2022-10-22T01:08:35.947Z,8.31
2022-10-22T01:14:38.837Z,8.28
2022-10-22T01:17:27.704Z,8.39
2022-10-22T01:20:25.131Z,8.34
2022-10-22T01:23:19.639Z,8.31
2022-10-22T01:26:04.784Z,8.39
2022-10-22T01:29:07.230Z,8.43
2022-10-22T01:31:52.891Z,8.39
2022-10-22T01:37:26.673Z,8.35
2022-10-22T01:40:19.224Z,8.27
2022-10-22T01:43:24.237Z,8.26
2022-10-22T01:46:12.485Z,8.27
2022-10-22T01:49:04.548Z,8.19
2022-10-22T01:51:59.662Z,8.17
2022-10-22T01:55:17.704Z,8.12
2022-10-22T01:58:05.889Z,8.16
2022-10-22T02:01:10.073Z,8.24
2022-10-22T02:04:11.988Z,8.35
2022-10-22T02:06:59.885Z,8.45
2022-10-22T02:09:49.990Z,8.31
2022-10-22T02:15:59.470Z,8.43
2022-10-22T02:19:03.803Z,8.43
2022-10-22T02:21:39.024Z,8.43
2022-10-22T02:24:18.689Z,8.35
2022-10-22T02:27:09.421Z,8.19
2022-10-22T02:29:51.499Z,8.01
2022-10-22T02:32:42.748Z,7.93
2022-10-22T02:35:32.510Z,8.10
2022-10-22T02:41:30.250Z,8.26
2022-10-22T02:44:08.947Z,8.39
2022-10-22T02:47:00.515Z,8.50
2022-10-22T02:49:39.808Z,8.61
2022-10-22T02:55:47.864Z,8.60
2022-10-22T02:58:59.178Z,8.67
2022-10-22T03:01:44.819Z,8.72
2022-10-22T03:07:36.123Z,8.27
2022-10-22T03:10:17.484Z,8.21
2022-10-22T03:13:09.106Z,8.46
2022-10-22T03:16:09.704Z,8.56
2022-10-22T03:18:48.455Z,8.67
2022-10-22T03:21:43.086Z,8.75
2022-10-22T03:24:22.498Z,8.79
2022-10-22T03:27:06.458Z,8.74
2022-10-22T03:30:03.968Z,8.66
2022-10-22T03:32:43.328Z,8.59
2022-10-22T03:38:52.807Z,8.56
2022-10-22T03:41:42.316Z,8.61
2022-10-22T03:44:49.291Z,8.79
2022-10-22T03:50:39.770Z,8.66
2022-10-22T03:53:16.745Z,8.53
2022-10-22T03:56:07.065Z,8.51
2022-10-22T03:58:54.776Z,8.32
2022-10-22T04:01:32.765Z,8.40
2022-10-22T04:04:18.670Z,8.46
2022-10-22T04:07:02.412Z,8.45
2022-10-22T04:09:41.252Z,8.44
2022-10-22T04:12:23.196Z,8.47
2022-10-22T04:15:15.860Z,8.51
2022-10-22T04:18:05.311Z,8.40
2022-10-22T04:20:58.214Z,8.34
2022-10-22T04:23:49.728Z,8.37
2022-10-22T04:26:36.594Z,8.33
2022-10-22T04:29:17.929Z,8.28
2022-10-22T04:32:18.129Z,8.14
2022-10-22T04:35:03.629Z,8.04
2022-10-22T04:37:42.308Z,8.04
2022-10-22T04:40:27.053Z,7.96
2022-10-22T04:43:17.164Z,7.93
2022-10-22T04:45:59.750Z,7.87
2022-10-22T04:48:49.443Z,7.91
2022-10-22T04:51:42.859Z,7.75
2022-10-22T04:54:25.766Z,7.72
2022-10-22T04:57:06.359Z,7.72
2022-10-22T04:59:46.351Z,7.65
2022-10-22T05:05:27.668Z,7.54
2022-10-22T05:08:13.538Z,7.55
2022-10-22T05:13:54.767Z,7.58
2022-10-22T05:16:32.956Z,7.52
2022-10-22T05:19:19.336Z,7.44
2022-10-22T05:22:01.457Z,7.15
2022-10-22T05:24:38.962Z,7.20
2022-10-22T05:27:26.623Z,7.40
2022-10-22T05:30:31.503Z,7.32
2022-10-22T05:33:10.332Z,7.25
2022-10-22T05:36:14.435Z,7.14
2022-10-22T05:39:21.641Z,7.12
2022-10-22T05:42:23.873Z,7.05
2022-10-22T05:45:12.416Z,7.04
2022-10-22T05:47:52.508Z,6.97
2022-10-22T05:54:37.458Z,6.85
2022-10-22T05:57:19.649Z,6.76
2022-10-22T06:00:15.655Z,6.65
2022-10-22T06:02:59.443Z,6.44
2022-10-22T06:05:59.146Z,6.65
2022-10-22T06:08:41.194Z,6.64
2022-10-22T06:11:19.957Z,6.36
2022-10-22T06:13:57.438Z,6.57
2022-10-22T06:16:44.212Z,6.69
2022-10-22T06:23:32.586Z,6.56
2022-10-22T06:26:20.358Z,6.46
2022-10-22T06:29:04.146Z,6.50
2022-10-22T06:31:50.510Z,6.51
2022-10-22T06:34:31.193Z,6.04
2022-10-22T06:37:07.941Z,6.47
2022-10-22T06:39:53.839Z,6.43
2022-10-22T06:42:41.510Z,6.40
2022-10-22T06:45:33.419Z,6.42
2022-10-22T06:52:12.701Z,6.46
2022-10-22T06:54:55.356Z,6.45
2022-10-22T06:57:38.937Z,6.44
2022-10-22T07:00:20.648Z,6.39
2022-10-22T07:03:09.134Z,6.39
2022-10-22T07:05:57.283Z,6.40
2022-10-22T07:11:32.658Z,6.36
2022-10-22T07:14:19.841Z,6.36
2022-10-22T07:17:02.195Z,6.42
2022-10-22T07:19:57.095Z,6.37
2022-10-22T07:22:36.226Z,6.31
2022-10-22T07:25:12.238Z,6.26
2022-10-22T07:28:09.042Z,6.05
2022-10-22T07:30:51.766Z,6.24
2022-10-22T07:36:51.200Z,6.17
2022-10-22T07:39:33.316Z,6.16
2022-10-22T07:42:17.188Z,6.21
2022-10-22T07:44:54.754Z,6.24
2022-10-22T07:47:33.287Z,6.23
2022-10-22T07:50:11.934Z,6.15
2022-10-22T07:53:29.062Z,6.17
2022-10-22T07:56:25.262Z,6.24
2022-10-22T07:59:11.135Z,6.20
2022-10-22T08:01:49.805Z,6.24
2022-10-22T08:04:34.821Z,6.24
2022-10-22T08:07:21.650Z,6.19
2022-10-22T08:10:09.477Z,6.12
2022-10-22T08:12:47.591Z,6.17
2022-10-22T08:15:31.061Z,6.13
2022-10-22T08:18:35.461Z,6.10
2022-10-22T08:21:14.613Z,6.19
2022-10-22T08:23:54.465Z,6.26
2022-10-22T08:26:36.964Z,6.24
2022-10-22T08:32:37.318Z,6.32
2022-10-22T08:35:21.163Z,6.34
2022-10-22T08:41:11.709Z,6.27
2022-10-22T08:44:26.370Z,6.31
2022-10-22T08:47:22.293Z,6.33
2022-10-22T08:50:03.565Z,6.16
2022-10-22T08:52:58.457Z,6.14
2022-10-22T08:55:43.882Z,6.20
2022-10-22T08:58:49.310Z,6.27
2022-10-22T09:01:51.688Z,6.32
2022-10-22T09:04:41.634Z,6.34
2022-10-22T09:07:28.856Z,6.34
2022-10-22T09:10:12.081Z,6.30
2022-10-22T09:12:57.151Z,6.29
2022-10-22T09:15:51.998Z,6.31
2022-10-22T09:18:46.490Z,6.29
2022-10-22T09:21:49.461Z,6.14
2022-10-22T09:24:43.780Z,6.01
2022-10-22T09:27:23.282Z,5.92
2022-10-22T09:32:57.827Z,5.76
2022-10-22T09:35:43.243Z,6.02
2022-10-22T09:41:14.022Z,5.98
2022-10-22T09:47:07.025Z,5.97
2022-10-22T09:49:51.056Z,5.97
2022-10-22T09:52:39.110Z,6.10
2022-10-22T09:55:32.282Z,6.05
2022-10-22T10:01:15.216Z,5.85
2022-10-22T10:03:51.506Z,5.72
2022-10-22T10:06:44.901Z,5.68
2022-10-22T10:09:40.666Z,5.58
2022-10-22T10:12:34.130Z,5.54
2022-10-22T10:15:24.907Z,5.05
2022-10-22T10:18:43.482Z,5.42
2022-10-22T10:24:47.819Z,5.25
2022-10-22T10:27:52.613Z,5.14
2022-10-22T10:30:36.456Z,4.96
2022-10-22T10:33:33.187Z,5.02
2022-10-22T10:36:37.313Z,4.95
2022-10-22T10:39:26.371Z,4.85
2022-10-22T10:42:33.549Z,4.85
2022-10-22T10:45:26.493Z,4.56
2022-10-22T10:48:37.357Z,4.85
2022-10-22T10:51:33.238Z,4.81
2022-10-22T10:57:51.845Z,4.70
2022-10-22T11:00:44.021Z,4.76
2022-10-22T11:03:58.755Z,4.79
2022-10-22T11:07:10.666Z,4.78
2022-10-22T11:09:59.480Z,4.84
2022-10-22T11:12:46.532Z,4.85
2022-10-22T11:18:42.846Z,4.89
2022-10-22T11:21:29.649Z,4.61
2022-10-22T11:24:17.092Z,4.85
2022-10-22T11:33:26.238Z,4.84
2022-10-22T11:39:14.806Z,4.79
2022-10-22T11:42:07.247Z,4.71
2022-10-22T11:45:13.996Z,4.76
2022-10-22T11:48:08.190Z,4.75
2022-10-22T11:51:01.359Z,4.70
2022-10-22T11:53:41.484Z,4.65
2022-10-22T11:56:46.304Z,4.75
2022-10-22T11:59:47.553Z,4.73
2022-10-22T12:02:49.582Z,4.69
2022-10-22T12:06:01.399Z,4.67
2022-10-22T12:08:47.902Z,4.66
2022-10-22T12:11:35.058Z,4.59
2022-10-22T12:17:39.974Z,4.50
2022-10-22T12:20:29.099Z,4.58
2022-10-22T12:23:18.850Z,4.45
2022-10-22T12:26:04.221Z,4.50
2022-10-22T12:28:47.781Z,4.45
2022-10-22T12:34:26.807Z,4.44
2022-10-22T12:37:23.122Z,4.44
2022-10-22T12:43:05.300Z,4.41
2022-10-22T12:45:39.524Z,4.34
2022-10-22T12:48:23.775Z,4.33
2022-10-22T12:51:12.200Z,4.31
2022-10-22T12:54:08.328Z,4.27
2022-10-22T13:14:45.110Z,4.07
2022-10-22T13:17:50.549Z,3.98
2022-10-22T13:20:38.912Z,4.00
2022-10-22T13:23:46.651Z,3.98
2022-10-22T13:29:31.916Z,3.93
2022-10-22T13:35:45.615Z,3.95
2022-10-22T13:38:38.591Z,3.81
2022-10-22T13:41:35.272Z,3.89
2022-10-22T13:44:20.136Z,3.80
2022-10-22T13:47:17.760Z,3.84
2022-10-22T13:50:02.036Z,3.82
2022-10-22T13:53:15.484Z,3.78
2022-10-22T13:55:58.290Z,3.71
2022-10-22T14:01:32.077Z,3.67
2022-10-22T14:04:15.671Z,3.65
2022-10-22T14:06:50.563Z,3.64
2022-10-22T14:09:42.904Z,3.63
2022-10-22T14:12:37.680Z,3.64
2022-10-22T14:15:32.068Z,3.62
2022-10-22T14:18:33.721Z,3.54
2022-10-22T14:21:38.529Z,3.41
2022-10-22T14:24:18.916Z,3.49
2022-10-22T14:27:11.836Z,3.46
2022-10-22T14:29:59.601Z,3.40
2022-10-22T14:32:52.954Z,3.34
2022-10-22T14:35:46.943Z,3.31
2022-10-22T14:38:50.214Z,3.26
2022-10-22T14:41:29.290Z,3.27
2022-10-22T14:51:01.915Z,3.15
2022-10-22T14:53:43.594Z,3.10
2022-10-22T14:56:26.953Z,3.08
2022-10-22T14:59:14.395Z,3.06
2022-10-22T15:02:09.061Z,3.06
2022-10-22T15:04:50.813Z,3.02
2022-10-22T15:07:37.628Z,3.00
2022-10-22T15:10:18.742Z,2.94
2022-10-22T15:12:56.506Z,2.98
2022-10-22T15:15:44.576Z,2.93
2022-10-22T15:18:38.018Z,2.95
2022-10-22T15:21:30.056Z,2.87
2022-10-22T15:24:18.930Z,2.93
2022-10-22T15:27:02.492Z,2.89
2022-10-22T15:32:32.693Z,2.82
2022-10-22T15:35:18.051Z,2.82
2022-10-22T15:38:13.512Z,2.81
2022-10-22T15:40:58.863Z,2.79
2022-10-22T15:43:42.639Z,2.76
2022-10-22T15:47:04.739Z,2.72
2022-10-22T15:49:57.689Z,2.62
2022-10-22T15:52:39.335Z,2.66
2022-10-22T15:55:23.447Z,2.11
2022-10-22T15:58:16.841Z,2.59
2022-10-22T16:01:11.174Z,2.57
2022-10-22T16:03:51.476Z,2.50
2022-10-22T16:06:37.875Z,2.51
2022-10-22T16:09:46.912Z,2.47
2022-10-22T16:12:43.259Z,2.49
2022-10-22T16:15:28.872Z,2.47
2022-10-22T16:18:21.758Z,2.44
2022-10-22T16:21:09.775Z,2.42
2022-10-22T16:23:48.706Z,2.42
2022-10-22T16:26:38.047Z,2.43
2022-10-22T16:29:51.480Z,2.44
2022-10-22T16:36:43.103Z,2.44
2022-10-22T16:40:04.446Z,2.39
2022-10-22T16:46:42.409Z,2.34
2022-10-22T16:50:00.490Z,2.31
2022-10-22T16:56:42.408Z,2.28
2022-10-22T17:00:02.630Z,2.28
2022-10-22T17:03:14.043Z,2.28
2022-10-22T17:06:39.387Z,2.24
2022-10-22T17:10:01.394Z,2.21
2022-10-22T17:13:28.888Z,2.21
2022-10-22T17:16:38.944Z,2.20
2022-10-22T17:19:24.833Z,2.17
2022-10-22T17:22:02.410Z,2.02
2022-10-22T17:24:41.050Z,2.13
2022-10-22T17:27:25.647Z,2.11
2022-10-22T17:30:07.276Z,2.08
2022-10-22T17:33:10.923Z,2.06
2022-10-22T17:35:59.888Z,2.08
2022-10-22T17:41:43.733Z,1.73
2022-10-22T17:44:35.738Z,2.00
2022-10-22T17:47:25.296Z,2.05
2022-10-22T17:50:02.060Z,2.03
2022-10-22T17:52:49.717Z,2.02
2022-10-22T17:55:28.091Z,1.94
2022-10-22T17:58:07.968Z,1.99
2022-10-22T18:00:54.877Z,1.99
2022-10-22T18:03:40.792Z,1.94
2022-10-22T18:06:24.871Z,1.93
2022-10-22T18:09:18.239Z,1.93
2022-10-22T18:12:06.410Z,1.89
2022-10-22T18:14:51.924Z,1.90
2022-10-22T18:17:35.924Z,1.89
2022-10-22T18:20:43.614Z,1.87
2022-10-22T18:23:37.104Z,1.90
2022-10-22T18:26:31.822Z,1.91
2022-10-22T18:29:11.400Z,1.90
2022-10-22T18:31:52.433Z,1.94
2022-10-22T18:34:27.309Z,1.96
2022-10-22T18:37:04.840Z,2.00
2022-10-22T18:39:49.850Z,2.03
2022-10-22T18:42:32.816Z,1.99
2022-10-22T18:45:22.468Z,1.94
2022-10-22T18:48:11.027Z,1.90
2022-10-22T18:54:50.551Z,1.89
2022-10-22T19:06:04.014Z,1.89
2022-10-22T19:12:37.437Z,1.93
2022-10-22T19:18:49.722Z,1.93
2022-10-22T19:24:44.371Z,1.90
2022-10-22T19:27:24.359Z,1.83
2022-10-22T19:33:06.652Z,1.89
2022-10-22T19:35:58.603Z,1.89
2022-10-22T19:38:38.750Z,1.91
2022-10-22T19:41:26.980Z,1.89
2022-10-22T19:47:30.687Z,1.88
2022-10-22T19:53:19.433Z,1.91
2022-10-22T19:56:00.007Z,1.88
2022-10-22T19:59:00.875Z,1.79
2022-10-22T20:01:55.333Z,1.86
2022-10-22T20:04:54.074Z,1.85
2022-10-22T20:07:42.699Z,1.62
2022-10-22T20:10:20.441Z,1.85
2022-10-22T20:13:00.411Z,1.83
2022-10-22T20:15:38.004Z,1.83
2022-10-22T20:18:18.529Z,1.84
2022-10-22T20:24:23.345Z,1.77
2022-10-22T20:27:18.345Z,1.75
2022-10-22T20:30:02.153Z,1.72
2022-10-22T20:32:57.899Z,1.73
2022-10-22T20:35:58.146Z,1.72
2022-10-22T20:38:34.346Z,1.70
2022-10-22T20:41:19.657Z,1.66
2022-10-22T20:44:06.638Z,1.71
2022-10-22T20:46:45.258Z,1.68
2022-10-22T20:49:36.692Z,1.59
2022-10-22T20:52:22.140Z,1.64
2022-10-22T20:55:02.637Z,1.69
2022-10-22T20:57:50.032Z,1.69
2022-10-22T21:00:40.581Z,1.68
2022-10-22T21:03:30.184Z,1.67
2022-10-22T21:06:13.893Z,1.66
2022-10-22T21:08:55.149Z,1.62
2022-10-22T21:11:40.028Z,1.62
2022-10-22T21:14:26.081Z,1.56
2022-10-22T21:17:11.179Z,1.65
2022-10-22T21:19:50.499Z,1.62
2022-10-22T21:22:35.147Z,1.62
2022-10-22T21:25:19.183Z,1.62
2022-10-22T21:28:04.031Z,1.68
2022-10-22T21:30:52.029Z,1.73
2022-10-22T21:33:35.381Z,1.73
2022-10-22T21:36:37.823Z,1.78
2022-10-22T21:39:41.977Z,1.83
2022-10-22T21:42:27.575Z,1.91
2022-10-22T21:45:29.554Z,1.96
2022-10-22T21:49:07.976Z,1.93
2022-10-22T21:52:10.485Z,1.91
2022-10-22T21:55:00.259Z,1.94
2022-10-22T21:57:58.725Z,1.96
2022-10-22T22:01:02.539Z,2.00
2022-10-22T22:03:49.323Z,2.01
2022-10-22T22:06:33.602Z,1.95
2022-10-22T22:09:22.283Z,2.09
2022-10-22T22:12:00.263Z,2.14
2022-10-22T22:17:44.262Z,2.22
2022-10-22T22:23:26.920Z,2.34
2022-10-22T22:26:16.127Z,2.13
2022-10-22T22:29:03.380Z,2.46
2022-10-22T22:31:51.255Z,2.50
2022-10-22T22:34:39.566Z,2.56
2022-10-22T22:37:16.270Z,2.61
2022-10-22T22:40:23.460Z,2.65
2022-10-22T22:43:52.913Z,2.81
2022-10-22T22:47:06.286Z,2.84
2022-10-22T22:50:16.536Z,2.94
2022-10-22T22:53:45.361Z,3.06
2022-10-22T22:57:14.897Z,3.20
2022-10-22T23:00:48.240Z,3.13
2022-10-22T23:04:00.192Z,3.10
2022-10-22T23:06:56.606Z,3.01
2022-10-22T23:09:33.631Z,3.03
2022-10-22T23:12:18.715Z,3.08
2022-10-22T23:15:05.892Z,2.88
2022-10-22T23:17:51.926Z,2.88
2022-10-22T23:20:32.728Z,2.90
2022-10-22T23:23:25.610Z,2.90
2022-10-22T23:26:12.239Z,3.00
2022-10-22T23:31:46.936Z,3.10
2022-10-22T23:34:30.686Z,3.01
2022-10-22T23:37:05.632Z,2.69
2022-10-22T23:39:46.507Z,3.00
2022-10-22T23:42:24.478Z,3.01
2022-10-22T23:45:09.078Z,3.07
2022-10-22T23:47:50.209Z,3.10
2022-10-22T23:53:46.086Z,3.25
2022-10-22T23:56:49.994Z,3.41
2022-10-22T23:59:27.939Z,3.40
